createdAt,value
2023-02-06T00:01:36.744Z,4.70
2023-02-06T00:04:05.319Z,4.80
2023-02-06T00:06:34.084Z,4.80
2023-02-06T00:09:03.657Z,4.70
2023-02-06T00:11:32.003Z,4.80
2023-02-06T00:14:01.669Z,4.60
2023-02-06T00:16:32.152Z,4.70
2023-02-06T00:19:01.156Z,4.70
2023-02-06T00:21:30.373Z,4.60
2023-02-06T00:24:02.665Z,4.60
2023-02-06T00:26:32.009Z,4.50
2023-02-06T00:29:01.629Z,4.60
2023-02-06T00:31:30.323Z,4.70
2023-02-06T00:33:58.530Z,4.70
2023-02-06T00:36:26.873Z,4.70
2023-02-06T00:38:55.600Z,4.60
2023-02-06T00:41:23.843Z,4.60
2023-02-06T00:43:52.010Z,4.70
2023-02-06T00:46:22.082Z,4.70
2023-02-06T00:48:50.314Z,4.70
2023-02-06T00:51:18.550Z,4.70
2023-02-06T00:53:47.778Z,4.60
2023-02-06T00:56:19.728Z,4.70
2023-02-06T00:58:48.525Z,4.80
2023-02-06T01:01:16.896Z,4.70
2023-02-06T01:03:46.521Z,4.80
2023-02-06T01:06:15.392Z,4.80
2023-02-06T01:08:43.798Z,4.80
2023-02-06T01:11:13.480Z,4.90
2023-02-06T01:13:42.604Z,4.90
2023-02-06T01:16:12.116Z,4.90
2023-02-06T01:18:40.834Z,4.90
2023-02-06T01:21:11.955Z,4.90
2023-02-06T01:23:40.596Z,4.80
2023-02-06T01:26:09.471Z,4.70
2023-02-06T01:28:39.231Z,4.80
2023-02-06T01:31:12.523Z,4.80
2023-02-06T01:33:41.393Z,4.90
2023-02-06T01:36:11.661Z,4.80
2023-02-06T01:38:39.930Z,4.90
2023-02-06T01:41:09.074Z,5.00
2023-02-06T01:43:39.777Z,5.00
2023-02-06T01:46:08.412Z,5.10
2023-02-06T01:48:40.092Z,4.90
2023-02-06T01:51:14.862Z,4.90
2023-02-06T01:53:45.590Z,4.90
2023-02-06T01:56:19.425Z,5.00
2023-02-06T01:58:52.643Z,5.00
2023-02-06T02:01:21.539Z,5.10
2023-02-06T02:03:53.870Z,5.00
2023-02-06T02:06:25.501Z,4.90
2023-02-06T02:08:58.382Z,4.90
2023-02-06T02:11:30.394Z,4.90
2023-02-06T02:13:59.016Z,4.90
2023-02-06T02:16:36.939Z,4.90
2023-02-06T02:19:43.284Z,4.80
2023-02-06T02:22:37.488Z,4.80
2023-02-06T02:25:25.462Z,4.80
2023-02-06T02:28:11.030Z,4.80
2023-02-06T02:30:58.699Z,4.70
2023-02-06T02:34:07.544Z,4.70
2023-02-06T02:36:43.192Z,4.90
2023-02-06T02:39:25.986Z,4.90
2023-02-06T02:41:59.457Z,4.90
2023-02-06T02:44:35.698Z,4.90
2023-02-06T02:47:08.408Z,4.90
2023-02-06T02:49:39.314Z,4.90
2023-02-06T02:52:08.896Z,5.00
2023-02-06T02:54:37.507Z,5.00
2023-02-06T02:57:10.982Z,4.90
2023-02-06T02:59:43.592Z,4.90
2023-02-06T03:02:14.948Z,4.90
2023-02-06T03:04:47.533Z,4.90
2023-02-06T03:07:25.723Z,5.00
2023-02-06T03:10:02.064Z,5.00
2023-02-06T03:12:40.607Z,5.00
2023-02-06T03:15:19.789Z,5.00
2023-02-06T03:17:50.711Z,5.10
2023-02-06T03:20:20.271Z,5.10
2023-02-06T03:22:52.131Z,5.10
2023-02-06T03:25:26.559Z,5.20
2023-02-06T03:27:55.649Z,5.20
2023-02-06T03:30:26.606Z,5.20
2023-02-06T03:33:03.020Z,5.20
2023-02-06T03:35:34.570Z,5.10
2023-02-06T03:38:06.182Z,5.10
2023-02-06T03:40:34.912Z,5.10
2023-02-06T03:43:05.584Z,5.00
2023-02-06T03:45:38.528Z,5.00
2023-02-06T03:48:11.280Z,4.90
2023-02-06T03:50:44.463Z,4.90
2023-02-06T03:53:15.567Z,4.90
2023-02-06T03:55:46.561Z,4.90
2023-02-06T03:58:15.950Z,4.90
2023-02-06T04:00:47.280Z,4.80
2023-02-06T04:03:16.434Z,4.80
2023-02-06T04:05:44.656Z,4.80
2023-02-06T04:08:14.437Z,4.80
2023-02-06T04:10:42.746Z,4.70
2023-02-06T04:13:10.890Z,4.60
2023-02-06T04:15:39.341Z,4.60
2023-02-06T04:18:07.897Z,4.50
2023-02-06T04:20:41.069Z,4.50
2023-02-06T04:23:09.970Z,4.50
2023-02-06T04:25:39.589Z,4.30
2023-02-06T04:28:08.171Z,4.30
2023-02-06T04:30:36.720Z,4.20
2023-02-06T04:33:05.107Z,4.20
2023-02-06T04:35:33.890Z,4.30
2023-02-06T04:38:02.172Z,4.30
2023-02-06T04:40:30.474Z,4.20
2023-02-06T04:43:00.753Z,4.20
2023-02-06T04:45:29.045Z,4.10
2023-02-06T04:47:59.382Z,4.10
2023-02-06T04:50:31.567Z,4.10
2023-02-06T04:53:00.214Z,4.00
2023-02-06T04:55:28.882Z,3.90
2023-02-06T04:57:57.487Z,3.90
2023-02-06T05:00:27.149Z,3.80
2023-02-06T05:02:55.372Z,3.90
2023-02-06T05:05:23.866Z,3.90
2023-02-06T05:07:52.118Z,3.80
2023-02-06T05:10:20.493Z,3.90
2023-02-06T05:12:50.962Z,3.80
2023-02-06T05:15:19.444Z,3.80
2023-02-06T05:17:49.328Z,3.90
2023-02-06T05:20:18.178Z,3.90
2023-02-06T05:22:46.563Z,3.90
2023-02-06T05:25:15.191Z,4.00
2023-02-06T05:27:43.471Z,3.90
2023-02-06T05:30:13.121Z,3.80
2023-02-06T05:32:41.985Z,3.80
2023-02-06T05:35:12.341Z,3.80
2023-02-06T05:37:40.539Z,3.90
2023-02-06T05:40:10.032Z,3.80
2023-02-06T05:42:38.390Z,3.80
2023-02-06T05:45:07.387Z,3.80
2023-02-06T05:47:35.874Z,3.90
2023-02-06T05:50:04.308Z,3.90
2023-02-06T05:52:33.976Z,3.90
2023-02-06T05:55:02.654Z,3.90
2023-02-06T05:57:30.970Z,3.90
2023-02-06T05:59:59.211Z,4.00
2023-02-06T06:02:27.604Z,3.90
2023-02-06T06:04:55.919Z,3.90
2023-02-06T06:07:24.143Z,3.80
2023-02-06T06:09:53.858Z,3.80
2023-02-06T06:12:22.179Z,3.70
2023-02-06T06:14:50.483Z,3.70
2023-02-06T06:17:18.883Z,3.70
2023-02-06T06:19:47.441Z,3.60
2023-02-06T06:22:15.723Z,3.70
2023-02-06T06:24:44.175Z,3.70
2023-02-06T06:27:13.946Z,3.60
2023-02-06T06:29:42.179Z,3.70
2023-02-06T06:32:10.480Z,3.70
2023-02-06T06:34:38.940Z,3.70
2023-02-06T06:37:07.113Z,3.60
2023-02-06T06:39:35.378Z,3.50
2023-02-06T06:42:04.624Z,3.50
2023-02-06T06:44:34.356Z,3.60
2023-02-06T06:47:02.891Z,3.50
2023-02-06T06:49:31.280Z,3.50
2023-02-06T06:51:59.700Z,3.60
2023-02-06T06:54:28.015Z,3.60
2023-02-06T06:56:56.539Z,3.70
2023-02-06T06:59:25.069Z,3.70
2023-02-06T07:01:54.580Z,3.60
2023-02-06T07:04:23.302Z,3.70
2023-02-06T07:06:51.677Z,3.60
2023-02-06T07:09:19.953Z,3.50
2023-02-06T07:11:48.286Z,3.50
2023-02-06T07:14:16.952Z,3.50
2023-02-06T07:16:45.217Z,3.70
2023-02-06T07:19:15.081Z,3.70
2023-02-06T07:21:43.394Z,3.60
2023-02-06T07:24:11.624Z,3.70
2023-02-06T07:26:41.698Z,3.60
2023-02-06T07:29:10.078Z,3.70
2023-02-06T07:31:38.399Z,3.80
2023-02-06T07:34:06.797Z,3.80
2023-02-06T07:36:37.559Z,3.90
2023-02-06T07:39:06.033Z,3.90
2023-02-06T07:41:34.335Z,3.90
2023-02-06T07:44:02.530Z,3.90
2023-02-06T07:46:30.986Z,4.00
2023-02-06T07:48:59.703Z,4.00
2023-02-06T07:51:28.149Z,4.10
2023-02-06T07:53:57.903Z,4.10
2023-02-06T07:56:26.528Z,4.10
2023-02-06T07:58:56.561Z,4.30
2023-02-06T08:01:24.908Z,4.40
2023-02-06T08:03:54.326Z,4.70
2023-02-06T08:06:24.536Z,4.90
2023-02-06T08:08:55.307Z,4.90
2023-02-06T08:11:30.376Z,5.00
2023-02-06T08:13:59.005Z,5.10
2023-02-06T08:16:27.405Z,5.20
2023-02-06T08:18:56.066Z,5.30
2023-02-06T08:21:25.886Z,5.50
2023-02-06T08:23:58.127Z,5.60
2023-02-06T08:26:29.307Z,5.70
2023-02-06T08:28:58.938Z,5.90
2023-02-06T08:31:29.424Z,6.10
2023-02-06T08:33:58.550Z,6.40
2023-02-06T08:36:28.105Z,6.60
2023-02-06T08:38:56.838Z,6.80
2023-02-06T08:41:28.327Z,7.00
2023-02-06T08:43:58.319Z,7.10
2023-02-06T08:46:29.392Z,6.90
2023-02-06T08:48:58.326Z,6.70
2023-02-06T08:51:28.165Z,6.80
2023-02-06T08:53:58.394Z,6.80
2023-02-06T08:56:28.853Z,6.80
2023-02-06T08:59:00.680Z,6.80
2023-02-06T09:01:30.295Z,6.80
2023-02-06T09:03:59.779Z,6.90
2023-02-06T09:06:29.668Z,6.90
2023-02-06T09:08:59.122Z,6.90
2023-02-06T09:11:30.030Z,7.00
2023-02-06T09:14:00.441Z,7.20
2023-02-06T09:16:30.167Z,7.40
2023-02-06T09:19:01.497Z,7.80
2023-02-06T09:21:31.345Z,8.10
2023-02-06T09:24:02.420Z,8.00
2023-02-06T09:26:38.944Z,8.00
2023-02-06T09:29:09.749Z,8.20
2023-02-06T09:31:39.567Z,8.50
2023-02-06T09:34:08.450Z,8.80
2023-02-06T09:36:37.766Z,8.90
2023-02-06T09:39:07.244Z,9.00
2023-02-06T09:41:41.835Z,9.10
2023-02-06T09:44:16.334Z,9.20
2023-02-06T09:46:49.617Z,9.50
2023-02-06T09:49:23.850Z,9.40
2023-02-06T09:52:11.073Z,9.80
2023-02-06T09:54:47.723Z,10.10
2023-02-06T09:57:23.238Z,10.10
2023-02-06T09:59:58.254Z,9.60
2023-02-06T10:02:52.605Z,9.40
2023-02-06T10:05:27.034Z,9.40
2023-02-06T10:08:04.515Z,9.00
2023-02-06T10:10:40.126Z,8.70
2023-02-06T10:13:17.455Z,8.40
2023-02-06T10:15:49.264Z,8.30
2023-02-06T10:18:23.230Z,8.50
2023-02-06T10:20:54.723Z,8.40
2023-02-06T10:23:30.282Z,8.50
2023-02-06T10:26:12.395Z,8.60
2023-02-06T10:28:42.605Z,8.60
2023-02-06T10:31:45.100Z,8.70
2023-02-06T10:34:28.606Z,8.60
2023-02-06T10:37:10.519Z,8.60
2023-02-06T10:39:50.283Z,8.70
2023-02-06T10:42:24.798Z,8.80
2023-02-06T10:45:16.978Z,8.90
2023-02-06T10:47:54.323Z,8.80
2023-02-06T10:50:29.705Z,8.70
2023-02-06T10:53:00.486Z,8.90
2023-02-06T10:55:31.629Z,9.10
2023-02-06T10:58:06.858Z,9.10
2023-02-06T11:00:37.332Z,9.10
2023-02-06T11:03:08.750Z,9.10
2023-02-06T11:05:38.805Z,9.10
2023-02-06T11:08:15.030Z,9.10
2023-02-06T11:10:43.638Z,9.30
2023-02-06T11:13:15.510Z,9.50
2023-02-06T11:16:01.001Z,9.70
2023-02-06T11:18:32.961Z,9.80
2023-02-06T11:21:02.505Z,10.00
2023-02-06T11:23:34.709Z,10.00
2023-02-06T11:26:10.792Z,10.10
2023-02-06T11:28:49.769Z,10.20
2023-02-06T11:31:21.304Z,10.40
2023-02-06T11:33:52.567Z,10.40
2023-02-06T11:36:27.429Z,10.30
2023-02-06T11:38:57.726Z,10.50
2023-02-06T11:41:26.413Z,11.00
2023-02-06T11:44:01.696Z,11.50
2023-02-06T11:46:35.205Z,11.30
2023-02-06T11:49:09.154Z,11.20
2023-02-06T11:51:49.957Z,11.30
2023-02-06T11:54:28.481Z,11.60
2023-02-06T11:57:03.428Z,11.40
2023-02-06T11:59:34.679Z,11.10
2023-02-06T12:02:25.757Z,10.70
2023-02-06T12:04:58.429Z,10.20
2023-02-06T12:07:31.031Z,9.90
2023-02-06T12:09:59.585Z,9.50
2023-02-06T12:12:33.155Z,9.30
2023-02-06T12:15:29.453Z,8.80
2023-02-06T12:18:01.362Z,8.40
2023-02-06T12:20:32.486Z,8.50
2023-02-06T12:23:05.252Z,8.40
2023-02-06T12:25:37.026Z,8.60
2023-02-06T12:28:12.892Z,8.80
2023-02-06T12:30:46.788Z,8.90
2023-02-06T12:33:21.509Z,8.90
2023-02-06T12:35:53.420Z,8.90
2023-02-06T12:38:30.618Z,9.00
2023-02-06T12:41:10.978Z,9.10
2023-02-06T12:43:40.587Z,8.90
2023-02-06T12:46:14.967Z,8.70
2023-02-06T12:48:50.900Z,8.70
2023-02-06T12:51:23.303Z,8.70
2023-02-06T12:53:57.066Z,8.60
2023-02-06T12:56:31.455Z,8.80
2023-02-06T12:59:15.786Z,9.00
2023-02-06T13:01:54.322Z,9.00
2023-02-06T13:04:26.362Z,9.00
2023-02-06T13:06:57.826Z,8.50
2023-02-06T13:09:30.181Z,8.60
2023-02-06T13:12:13.358Z,8.60
2023-02-06T13:14:48.955Z,8.80
2023-02-06T13:17:21.871Z,8.90
2023-02-06T13:20:02.605Z,9.00
2023-02-06T13:22:41.487Z,9.20
2023-02-06T13:25:52.473Z,9.40
2023-02-06T13:28:59.274Z,9.60
2023-02-06T13:31:31.143Z,9.90
2023-02-06T13:34:03.345Z,10.20
2023-02-06T13:36:53.790Z,10.20
2023-02-06T13:39:29.203Z,10.30
2023-02-06T13:42:00.382Z,10.20
2023-02-06T13:44:32.916Z,10.20
2023-02-06T13:47:33.672Z,10.00
2023-02-06T13:50:24.726Z,10.00
2023-02-06T13:53:10.907Z,10.20
2023-02-06T13:55:56.167Z,10.20
2023-02-06T13:58:42.035Z,10.20
2023-02-06T14:01:20.703Z,10.10
2023-02-06T14:03:51.178Z,10.10
2023-02-06T14:06:38.175Z,10.10
2023-02-06T14:09:30.672Z,9.90
2023-02-06T14:12:26.004Z,9.80
2023-02-06T14:15:13.391Z,9.70
2023-02-06T14:17:58.005Z,9.60
2023-02-06T14:20:35.609Z,9.60
2023-02-06T14:23:13.743Z,9.70
2023-02-06T14:26:05.653Z,9.90
2023-02-06T14:28:44.627Z,9.90
2023-02-06T14:31:24.347Z,9.90
2023-02-06T14:34:09.940Z,9.90
2023-02-06T14:36:57.515Z,9.70
2023-02-06T14:39:40.349Z,9.60
2023-02-06T14:42:15.991Z,9.40
2023-02-06T14:44:46.244Z,9.40
2023-02-06T14:47:20.791Z,9.30
2023-02-06T14:49:50.591Z,9.30
2023-02-06T14:52:22.807Z,9.40
2023-02-06T14:54:51.266Z,9.40
2023-02-06T14:57:24.112Z,9.50
2023-02-06T14:59:55.189Z,9.40
2023-02-06T15:02:28.604Z,9.40
2023-02-06T15:04:57.787Z,9.40
2023-02-06T15:07:30.570Z,9.30
2023-02-06T15:10:06.974Z,9.30
2023-02-06T15:12:37.335Z,9.10
2023-02-06T15:15:18.311Z,8.90
2023-02-06T15:17:58.032Z,8.90
2023-02-06T15:20:28.990Z,8.90
2023-02-06T15:23:11.721Z,8.70
2023-02-06T15:26:05.371Z,8.70
2023-02-06T15:28:36.306Z,8.50
2023-02-06T15:31:05.261Z,8.40
2023-02-06T15:33:36.094Z,8.40
2023-02-06T15:36:05.745Z,8.30
2023-02-06T15:38:35.312Z,8.30
2023-02-06T15:41:07.701Z,8.40
2023-02-06T15:43:38.008Z,8.30
2023-02-06T15:46:07.196Z,8.20
2023-02-06T15:48:40.238Z,8.00
2023-02-06T15:51:21.880Z,8.00
2023-02-06T15:53:51.670Z,7.90
2023-02-06T15:56:25.060Z,7.80
2023-02-06T15:59:00.898Z,7.80
2023-02-06T16:01:32.093Z,7.70
2023-02-06T16:04:04.340Z,7.70
2023-02-06T16:06:32.981Z,7.70
2023-02-06T16:09:06.539Z,7.80
2023-02-06T16:11:51.190Z,7.80
2023-02-06T16:14:37.403Z,7.70
2023-02-06T16:17:23.042Z,7.80
2023-02-06T16:19:56.203Z,7.70
2023-02-06T16:22:27.116Z,7.80
2023-02-06T16:25:13.124Z,7.60
2023-02-06T16:27:45.205Z,7.70
2023-02-06T16:30:25.766Z,7.50
2023-02-06T16:32:55.526Z,7.50
2023-02-06T16:35:25.278Z,7.40
2023-02-06T16:37:55.794Z,7.40
2023-02-06T16:40:26.194Z,7.50
2023-02-06T16:42:54.719Z,7.40
2023-02-06T16:45:26.414Z,7.30
2023-02-06T16:47:55.993Z,7.40
2023-02-06T16:50:24.283Z,7.40
2023-02-06T16:52:56.407Z,7.30
2023-02-06T16:55:27.239Z,7.20
2023-02-06T16:57:59.125Z,7.10
2023-02-06T17:00:32.616Z,7.10
2023-02-06T17:03:01.097Z,7.10
2023-02-06T17:05:31.482Z,7.10
2023-02-06T17:08:01.722Z,7.00
2023-02-06T17:10:30.398Z,7.10
2023-02-06T17:12:59.233Z,7.10
2023-02-06T17:15:27.812Z,7.10
2023-02-06T17:17:57.652Z,7.10
2023-02-06T17:20:32.150Z,7.20
2023-02-06T17:23:00.690Z,7.10
2023-02-06T17:25:29.530Z,7.10
2023-02-06T17:27:57.862Z,7.10
2023-02-06T17:30:27.397Z,7.10
2023-02-06T17:32:57.441Z,7.10
2023-02-06T17:35:25.920Z,7.10
2023-02-06T17:37:54.405Z,7.00
2023-02-06T17:40:25.332Z,6.90
2023-02-06T17:42:54.003Z,7.00
2023-02-06T17:45:22.911Z,7.00
2023-02-06T17:47:51.520Z,6.80
2023-02-06T17:50:23.035Z,6.90
2023-02-06T17:52:53.006Z,7.00
2023-02-06T17:55:21.533Z,6.90
2023-02-06T17:57:50.199Z,6.80
2023-02-06T18:00:22.591Z,6.80
2023-02-06T18:02:50.950Z,6.80
2023-02-06T18:05:21.637Z,6.80
2023-02-06T18:07:51.834Z,6.70
2023-02-06T18:10:21.048Z,6.60
2023-02-06T18:12:49.493Z,6.60
2023-02-06T18:15:18.895Z,6.50
2023-02-06T18:17:47.376Z,6.50
2023-02-06T18:20:16.379Z,6.50
2023-02-06T18:22:46.733Z,6.40
2023-02-06T18:25:16.233Z,6.20
2023-02-06T18:27:46.152Z,6.10
2023-02-06T18:30:15.732Z,6.10
2023-02-06T18:32:44.125Z,6.10
2023-02-06T18:35:12.574Z,6.20
2023-02-06T18:37:41.148Z,6.00
2023-02-06T18:40:12.056Z,6.00
2023-02-06T18:42:52.131Z,5.90
2023-02-06T18:45:21.169Z,5.90
2023-02-06T18:47:51.415Z,5.90
2023-02-06T18:50:22.159Z,5.90
2023-02-06T18:52:51.018Z,5.90
2023-02-06T18:55:21.246Z,5.80
2023-02-06T18:57:50.050Z,5.80
2023-02-06T19:00:20.747Z,5.70
2023-02-06T19:02:49.246Z,5.70
2023-02-06T19:05:18.681Z,5.70
2023-02-06T19:07:50.117Z,5.70
2023-02-06T19:10:20.702Z,5.60
2023-02-06T19:12:49.320Z,5.60
2023-02-06T19:15:17.742Z,5.60
2023-02-06T19:17:46.141Z,5.50
2023-02-06T19:20:14.756Z,5.50
2023-02-06T19:22:43.000Z,5.50
2023-02-06T19:25:14.534Z,5.30
2023-02-06T19:27:44.541Z,5.30
2023-02-06T19:30:14.453Z,5.30
2023-02-06T19:32:43.490Z,5.30
2023-02-06T19:35:13.090Z,5.20
2023-02-06T19:37:41.531Z,5.20
2023-02-06T19:40:10.591Z,5.20
2023-02-06T19:42:40.101Z,5.20
2023-02-06T19:45:10.293Z,5.10
2023-02-06T19:47:38.550Z,5.10
2023-02-06T19:50:07.696Z,5.00
2023-02-06T19:52:36.250Z,4.90
2023-02-06T19:55:04.693Z,5.00
2023-02-06T19:57:33.039Z,5.00
2023-02-06T20:00:01.594Z,5.00
2023-02-06T20:02:31.244Z,5.00
2023-02-06T20:05:02.158Z,5.00
2023-02-06T20:07:31.848Z,4.90
2023-02-06T20:10:00.239Z,4.90
2023-02-06T20:12:29.123Z,5.00
2023-02-06T20:14:57.585Z,4.90
2023-02-06T20:17:26.958Z,4.90
2023-02-06T20:20:00.793Z,4.90
2023-02-06T20:22:30.145Z,4.90
2023-02-06T20:24:58.492Z,4.90
2023-02-06T20:27:27.719Z,4.90
2023-02-06T20:29:56.025Z,4.80
2023-02-06T20:32:24.404Z,4.80
2023-02-06T20:34:53.262Z,4.80
2023-02-06T20:37:22.950Z,4.90
2023-02-06T20:39:51.212Z,4.90
2023-02-06T20:42:22.769Z,4.90
2023-02-06T20:44:51.649Z,4.90
2023-02-06T20:47:19.995Z,4.80
2023-02-06T20:49:48.579Z,4.80
2023-02-06T20:52:17.030Z,4.70
2023-02-06T20:54:46.916Z,4.70
2023-02-06T20:57:15.615Z,4.70
2023-02-06T20:59:43.917Z,4.60
2023-02-06T21:02:12.359Z,4.60
2023-02-06T21:04:40.850Z,4.60
2023-02-06T21:07:09.075Z,4.60
2023-02-06T21:09:37.588Z,4.50
2023-02-06T21:12:07.807Z,4.40
2023-02-06T21:14:36.077Z,4.50
2023-02-06T21:17:04.527Z,4.50
2023-02-06T21:19:33.007Z,4.50
2023-02-06T21:22:01.582Z,4.60
2023-02-06T21:24:30.272Z,4.50
2023-02-06T21:26:58.643Z,4.50
2023-02-06T21:29:28.471Z,4.60
2023-02-06T21:32:12.266Z,4.60
2023-02-06T21:34:41.476Z,4.40
2023-02-06T21:37:10.328Z,4.30
2023-02-06T21:39:40.960Z,4.30
2023-02-06T21:42:10.110Z,4.20
2023-02-06T21:44:39.911Z,4.20
2023-02-06T21:47:10.120Z,4.20
2023-02-06T21:49:39.144Z,4.20
2023-02-06T21:52:07.424Z,4.20
2023-02-06T21:54:35.970Z,4.10
2023-02-06T21:57:04.488Z,4.10
2023-02-06T21:59:34.159Z,4.00
2023-02-06T22:02:03.878Z,3.90
2023-02-06T22:04:32.557Z,3.80
2023-02-06T22:07:00.831Z,3.80
2023-02-06T22:09:29.304Z,3.90
2023-02-06T22:11:58.452Z,3.90
2023-02-06T22:14:27.229Z,3.90
2023-02-06T22:16:55.569Z,4.00
2023-02-06T22:19:25.608Z,3.90
2023-02-06T22:21:53.912Z,3.90
2023-02-06T22:24:22.694Z,3.90
2023-02-06T22:26:51.324Z,3.90
2023-02-06T22:29:19.674Z,3.90
2023-02-06T22:31:48.557Z,3.90
2023-02-06T22:34:18.761Z,3.90
2023-02-06T22:36:49.102Z,3.90
2023-02-06T22:39:17.851Z,3.90
2023-02-06T22:41:47.398Z,3.80
2023-02-06T22:44:17.185Z,3.80
2023-02-06T22:46:47.839Z,3.80
2023-02-06T22:49:16.837Z,3.80
2023-02-06T22:51:45.130Z,3.80
2023-02-06T22:54:15.780Z,3.80
2023-02-06T22:56:44.885Z,3.80
2023-02-06T22:59:16.934Z,3.80
2023-02-06T23:01:47.208Z,3.80
2023-02-06T23:04:17.529Z,3.70
2023-02-06T23:06:46.509Z,3.70
2023-02-06T23:09:18.701Z,3.60
2023-02-06T23:11:47.490Z,3.60
2023-02-06T23:14:16.962Z,3.60
2023-02-06T23:16:46.063Z,3.60
2023-02-06T23:19:15.716Z,3.60
2023-02-06T23:21:47.686Z,3.60
2023-02-06T23:24:18.095Z,3.60
2023-02-06T23:26:49.410Z,3.60
2023-02-06T23:29:19.139Z,3.50
2023-02-06T23:31:48.718Z,3.60
2023-02-06T23:34:17.953Z,3.60
2023-02-06T23:36:47.196Z,3.60
2023-02-06T23:39:16.993Z,3.50
2023-02-06T23:41:45.367Z,3.40
2023-02-06T23:44:13.865Z,3.40
2023-02-06T23:46:42.784Z,3.50
2023-02-06T23:49:11.923Z,3.50
2023-02-06T23:51:40.457Z,3.50
2023-02-06T23:54:09.910Z,3.50
2023-02-06T23:56:40.252Z,3.60
2023-02-06T23:59:08.763Z,3.60
